sensor_id;sensor_type;location;lat;lon;timestamp;P1;durP1;ratioP1;P2;durP2;ratioP2
43990;SDS011;29654;50.784;20.604;2023-01-06T00:00:11;2.63;;;2.25;;
43990;SDS011;29654;50.784;20.604;2023-01-06T00:05:17;2.25;;;2.05;;
43990;SDS011;29654;50.784;20.604;2023-01-06T00:10:19;2.30;;;2.08;;
43990;SDS011;29654;50.784;20.604;2023-01-06T00:15:22;2.67;;;1.63;;
43990;SDS011;29654;50.784;20.604;2023-01-06T00:20:26;2.53;;;2.30;;
43990;SDS011;29654;50.784;20.604;2023-01-06T00:25:29;3.05;;;2.08;;
43990;SDS011;29654;50.784;20.604;2023-01-06T00:30:31;2.33;;;2.13;;
43990;SDS011;29654;50.784;20.604;2023-01-06T00:35:35;2.65;;;2.45;;
43990;SDS011;29654;50.784;20.604;2023-01-06T00:40:38;2.92;;;2.03;;
43990;SDS011;29654;50.784;20.604;2023-01-06T00:45:41;2.10;;;1.90;;
43990;SDS011;29654;50.784;20.604;2023-01-06T00:50:45;2.63;;;1.80;;
43990;SDS011;29654;50.784;20.604;2023-01-06T00:55:47;2.22;;;1.90;;
43990;SDS011;29654;50.784;20.604;2023-01-06T01:00:50;2.40;;;2.20;;
43990;SDS011;29654;50.784;20.604;2023-01-06T01:05:58;3.47;;;2.65;;
43990;SDS011;29654;50.784;20.604;2023-01-06T01:11:01;3.22;;;1.80;;
43990;SDS011;29654;50.784;20.604;2023-01-06T01:16:06;2.05;;;1.70;;
43990;SDS011;29654;50.784;20.604;2023-01-06T01:21:11;1.90;;;1.63;;
43990;SDS011;29654;50.784;20.604;2023-01-06T01:26:13;2.13;;;1.98;;
43990;SDS011;29654;50.784;20.604;2023-01-06T01:31:16;2.17;;;1.98;;
43990;SDS011;29654;50.784;20.604;2023-01-06T01:36:21;2.85;;;1.80;;
43990;SDS011;29654;50.784;20.604;2023-01-06T01:41:24;3.35;;;2.08;;
43990;SDS011;29654;50.784;20.604;2023-01-06T01:46:28;2.08;;;1.88;;
43990;SDS011;29654;50.784;20.604;2023-01-06T01:51:36;2.53;;;2.05;;
43990;SDS011;29654;50.784;20.604;2023-01-06T01:56:45;2.60;;;2.10;;
43990;SDS011;29654;50.784;20.604;2023-01-06T02:01:52;5.53;;;3.55;;
43990;SDS011;29654;50.784;20.604;2023-01-06T02:06:56;3.30;;;2.90;;
43990;SDS011;29654;50.784;20.604;2023-01-06T02:11:59;3.05;;;2.22;;
43990;SDS011;29654;50.784;20.604;2023-01-06T02:17:11;2.78;;;2.20;;
43990;SDS011;29654;50.784;20.604;2023-01-06T02:22:59;1.90;;;1.80;;
43990;SDS011;29654;50.784;20.604;2023-01-06T02:34:36;3.00;;;2.40;;
43990;SDS011;29654;50.784;20.604;2023-01-06T02:40:09;4.40;;;2.35;;
43990;SDS011;29654;50.784;20.604;2023-01-06T02:45:26;2.28;;;2.08;;
43990;SDS011;29654;50.784;20.604;2023-01-06T02:50:43;2.15;;;2.05;;
43990;SDS011;29654;50.784;20.604;2023-01-06T02:55:54;3.75;;;2.08;;
43990;SDS011;29654;50.784;20.604;2023-01-06T03:00:59;4.00;;;2.95;;
43990;SDS011;29654;50.784;20.604;2023-01-06T03:06:08;3.83;;;2.70;;
43990;SDS011;29654;50.784;20.604;2023-01-06T03:11:15;2.33;;;2.13;;
43990;SDS011;29654;50.784;20.604;2023-01-06T03:16:18;2.20;;;2.00;;
43990;SDS011;29654;50.784;20.604;2023-01-06T03:21:23;2.83;;;2.33;;
43990;SDS011;29654;50.784;20.604;2023-01-06T03:26:30;2.70;;;2.05;;
43990;SDS011;29654;50.784;20.604;2023-01-06T03:31:36;4.13;;;2.65;;
43990;SDS011;29654;50.784;20.604;2023-01-06T03:36:52;3.08;;;2.80;;
43990;SDS011;29654;50.784;20.604;2023-01-06T03:42:08;3.22;;;2.92;;
43990;SDS011;29654;50.784;20.604;2023-01-06T03:47:42;2.85;;;2.58;;
43990;SDS011;29654;50.784;20.604;2023-01-06T03:52:57;3.88;;;3.55;;
43990;SDS011;29654;50.784;20.604;2023-01-06T03:58:07;2.92;;;2.72;;
43990;SDS011;29654;50.784;20.604;2023-01-06T04:03:11;2.00;;;1.88;;
43990;SDS011;29654;50.784;20.604;2023-01-06T04:08:19;3.35;;;3.05;;
43990;SDS011;29654;50.784;20.604;2023-01-06T04:13:22;3.45;;;2.50;;
43990;SDS011;29654;50.784;20.604;2023-01-06T04:18:27;2.55;;;2.35;;
43990;SDS011;29654;50.784;20.604;2023-01-06T04:23:33;2.40;;;2.20;;
43990;SDS011;29654;50.784;20.604;2023-01-06T04:28:39;2.92;;;2.67;;
43990;SDS011;29654;50.784;20.604;2023-01-06T04:33:42;3.05;;;2.75;;
43990;SDS011;29654;50.784;20.604;2023-01-06T04:38:47;3.45;;;2.47;;
43990;SDS011;29654;50.784;20.604;2023-01-06T04:43:50;2.63;;;2.42;;
43990;SDS011;29654;50.784;20.604;2023-01-06T04:48:52;4.05;;;2.95;;
43990;SDS011;29654;50.784;20.604;2023-01-06T04:53:56;4.60;;;2.75;;
43990;SDS011;29654;50.784;20.604;2023-01-06T04:58:59;3.17;;;2.90;;
43990;SDS011;29654;50.784;20.604;2023-01-06T05:04:01;3.30;;;3.00;;
43990;SDS011;29654;50.784;20.604;2023-01-06T05:09:06;3.72;;;3.33;;
43990;SDS011;29654;50.784;20.604;2023-01-06T05:14:09;3.58;;;3.00;;
43990;SDS011;29654;50.784;20.604;2023-01-06T05:19:11;3.53;;;3.00;;
43990;SDS011;29654;50.784;20.604;2023-01-06T05:24:15;3.20;;;2.90;;
43990;SDS011;29654;50.784;20.604;2023-01-06T05:29:18;3.15;;;2.83;;
43990;SDS011;29654;50.784;20.604;2023-01-06T05:34:20;3.28;;;2.60;;
43990;SDS011;29654;50.784;20.604;2023-01-06T05:39:24;5.10;;;2.80;;
43990;SDS011;29654;50.784;20.604;2023-01-06T05:44:27;3.40;;;2.58;;
43990;SDS011;29654;50.784;20.604;2023-01-06T05:49:29;3.25;;;2.95;;
43990;SDS011;29654;50.784;20.604;2023-01-06T05:54:33;3.55;;;3.03;;
43990;SDS011;29654;50.784;20.604;2023-01-06T05:59:36;3.22;;;2.53;;
43990;SDS011;29654;50.784;20.604;2023-01-06T06:04:38;3.60;;;2.55;;
43990;SDS011;29654;50.784;20.604;2023-01-06T06:09:42;5.00;;;3.08;;
43990;SDS011;29654;50.784;20.604;2023-01-06T06:14:45;2.90;;;2.70;;
43990;SDS011;29654;50.784;20.604;2023-01-06T06:19:47;3.47;;;3.03;;
43990;SDS011;29654;50.784;20.604;2023-01-06T06:24:51;4.45;;;3.38;;
43990;SDS011;29654;50.784;20.604;2023-01-06T06:29:54;3.42;;;3.10;;
43990;SDS011;29654;50.784;20.604;2023-01-06T06:34:57;4.20;;;3.42;;
43990;SDS011;29654;50.784;20.604;2023-01-06T06:40:01;5.40;;;4.10;;
43990;SDS011;29654;50.784;20.604;2023-01-06T06:45:04;5.40;;;3.70;;
43990;SDS011;29654;50.784;20.604;2023-01-06T06:50:08;3.67;;;3.17;;
43990;SDS011;29654;50.784;20.604;2023-01-06T06:55:13;4.22;;;3.10;;
43990;SDS011;29654;50.784;20.604;2023-01-06T07:00:16;4.70;;;3.58;;
43990;SDS011;29654;50.784;20.604;2023-01-06T07:05:18;6.53;;;3.45;;
43990;SDS011;29654;50.784;20.604;2023-01-06T07:10:23;5.45;;;4.20;;
43990;SDS011;29654;50.784;20.604;2023-01-06T07:15:25;4.80;;;3.92;;
43990;SDS011;29654;50.784;20.604;2023-01-06T07:20:28;5.18;;;4.35;;
43990;SDS011;29654;50.784;20.604;2023-01-06T07:25:32;3.88;;;3.40;;
43990;SDS011;29654;50.784;20.604;2023-01-06T07:30:35;4.15;;;3.10;;
43990;SDS011;29654;50.784;20.604;2023-01-06T07:35:38;5.00;;;3.28;;
43990;SDS011;29654;50.784;20.604;2023-01-06T07:40:42;4.00;;;3.53;;
43990;SDS011;29654;50.784;20.604;2023-01-06T07:45:45;7.28;;;5.22;;
43990;SDS011;29654;50.784;20.604;2023-01-06T07:50:48;4.03;;;3.35;;
43990;SDS011;29654;50.784;20.604;2023-01-06T07:55:52;3.38;;;3.08;;
43990;SDS011;29654;50.784;20.604;2023-01-06T08:00:55;3.78;;;3.35;;
43990;SDS011;29654;50.784;20.604;2023-01-06T08:05:58;3.88;;;3.15;;
43990;SDS011;29654;50.784;20.604;2023-01-06T08:11:02;3.55;;;3.17;;
43990;SDS011;29654;50.784;20.604;2023-01-06T08:16:05;4.65;;;4.05;;
43990;SDS011;29654;50.784;20.604;2023-01-06T08:21:10;5.32;;;4.15;;
43990;SDS011;29654;50.784;20.604;2023-01-06T08:26:15;4.75;;;4.25;;
43990;SDS011;29654;50.784;20.604;2023-01-06T08:31:21;4.07;;;3.75;;
43990;SDS011;29654;50.784;20.604;2023-01-06T08:36:25;4.40;;;4.00;;
43990;SDS011;29654;50.784;20.604;2023-01-06T08:41:29;5.03;;;4.47;;
43990;SDS011;29654;50.784;20.604;2023-01-06T08:46:33;5.13;;;4.63;;
43990;SDS011;29654;50.784;20.604;2023-01-06T08:51:36;5.13;;;4.63;;
43990;SDS011;29654;50.784;20.604;2023-01-06T08:56:41;5.55;;;5.05;;
43990;SDS011;29654;50.784;20.604;2023-01-06T09:01:44;4.72;;;4.32;;
43990;SDS011;29654;50.784;20.604;2023-01-06T09:06:47;6.47;;;4.55;;
43990;SDS011;29654;50.784;20.604;2023-01-06T09:11:50;5.05;;;4.40;;
43990;SDS011;29654;50.784;20.604;2023-01-06T09:16:54;5.95;;;4.13;;
43990;SDS011;29654;50.784;20.604;2023-01-06T09:21:56;4.63;;;4.22;;
43990;SDS011;29654;50.784;20.604;2023-01-06T09:27:00;4.53;;;4.13;;
43990;SDS011;29654;50.784;20.604;2023-01-06T09:32:03;4.13;;;3.75;;
43990;SDS011;29654;50.784;20.604;2023-01-06T09:37:07;4.55;;;4.10;;
43990;SDS011;29654;50.784;20.604;2023-01-06T09:42:28;5.80;;;4.28;;
43990;SDS011;29654;50.784;20.604;2023-01-06T09:47:49;4.35;;;3.95;;
43990;SDS011;29654;50.784;20.604;2023-01-06T09:52:57;4.00;;;3.70;;
43990;SDS011;29654;50.784;20.604;2023-01-06T09:58:04;4.60;;;4.18;;
43990;SDS011;29654;50.784;20.604;2023-01-06T10:03:13;3.90;;;3.58;;
43990;SDS011;29654;50.784;20.604;2023-01-06T10:08:18;4.18;;;3.78;;
43990;SDS011;29654;50.784;20.604;2023-01-06T10:13:37;3.35;;;3.08;;
43990;SDS011;29654;50.784;20.604;2023-01-06T10:18:57;3.65;;;3.35;;
43990;SDS011;29654;50.784;20.604;2023-01-06T10:24:18;3.90;;;3.58;;
43990;SDS011;29654;50.784;20.604;2023-01-06T10:29:35;3.47;;;3.17;;
43990;SDS011;29654;50.784;20.604;2023-01-06T10:34:40;3.70;;;3.38;;
43990;SDS011;29654;50.784;20.604;2023-01-06T10:39:47;3.67;;;3.38;;
43990;SDS011;29654;50.784;20.604;2023-01-06T10:44:57;4.10;;;3.80;;
43990;SDS011;29654;50.784;20.604;2023-01-06T10:50:00;4.50;;;4.10;;
43990;SDS011;29654;50.784;20.604;2023-01-06T10:55:03;3.60;;;3.30;;
43990;SDS011;29654;50.784;20.604;2023-01-06T11:00:17;3.60;;;3.30;;
43990;SDS011;29654;50.784;20.604;2023-01-06T11:05:22;4.10;;;3.80;;
43990;SDS011;29654;50.784;20.604;2023-01-06T11:10:28;5.28;;;4.07;;
43990;SDS011;29654;50.784;20.604;2023-01-06T11:15:37;3.40;;;3.10;;
43990;SDS011;29654;50.784;20.604;2023-01-06T11:20:41;3.40;;;3.10;;
43990;SDS011;29654;50.784;20.604;2023-01-06T11:25:44;4.68;;;3.05;;
43990;SDS011;29654;50.784;20.604;2023-01-06T11:31:06;4.72;;;4.28;;
43990;SDS011;29654;50.784;20.604;2023-01-06T11:36:16;5.38;;;4.20;;
43990;SDS011;29654;50.784;20.604;2023-01-06T11:41:23;4.55;;;3.65;;
43990;SDS011;29654;50.784;20.604;2023-01-06T11:46:30;4.63;;;4.22;;
43990;SDS011;29654;50.784;20.604;2023-01-06T11:57:11;5.18;;;4.35;;
43990;SDS011;29654;50.784;20.604;2023-01-06T12:02:26;5.22;;;4.43;;
43990;SDS011;29654;50.784;20.604;2023-01-06T12:07:37;4.70;;;3.88;;
43990;SDS011;29654;50.784;20.604;2023-01-06T12:12:44;4.10;;;3.75;;
43990;SDS011;29654;50.784;20.604;2023-01-06T12:17:48;3.63;;;3.33;;
43990;SDS011;29654;50.784;20.604;2023-01-06T12:22:56;4.50;;;3.13;;
43990;SDS011;29654;50.784;20.604;2023-01-06T12:28:02;4.07;;;3.67;;
43990;SDS011;29654;50.784;20.604;2023-01-06T12:33:10;5.00;;;3.53;;
43990;SDS011;29654;50.784;20.604;2023-01-06T12:38:21;4.40;;;4.00;;
43990;SDS011;29654;50.784;20.604;2023-01-06T12:43:40;4.22;;;3.88;;
43990;SDS011;29654;50.784;20.604;2023-01-06T12:48:55;4.72;;;4.32;;
43990;SDS011;29654;50.784;20.604;2023-01-06T12:54:03;4.88;;;4.38;;
43990;SDS011;29654;50.784;20.604;2023-01-06T12:59:15;3.97;;;3.65;;
43990;SDS011;29654;50.784;20.604;2023-01-06T13:04:34;5.05;;;4.55;;
43990;SDS011;29654;50.784;20.604;2023-01-06T13:09:56;5.22;;;4.72;;
43990;SDS011;29654;50.784;20.604;2023-01-06T13:15:11;5.72;;;4.85;;
43990;SDS011;29654;50.784;20.604;2023-01-06T13:20:22;5.82;;;5.25;;
43990;SDS011;29654;50.784;20.604;2023-01-06T13:25:34;5.90;;;5.35;;
43990;SDS011;29654;50.784;20.604;2023-01-06T13:31:13;5.57;;;5.03;;
43990;SDS011;29654;50.784;20.604;2023-01-06T13:42:17;5.47;;;4.97;;
43990;SDS011;29654;50.784;20.604;2023-01-06T13:47:26;5.38;;;4.88;;
43990;SDS011;29654;50.784;20.604;2023-01-06T13:52:32;5.38;;;4.88;;
43990;SDS011;29654;50.784;20.604;2023-01-06T13:57:36;5.97;;;4.78;;
43990;SDS011;29654;50.784;20.604;2023-01-06T14:08:29;7.18;;;5.47;;
43990;SDS011;29654;50.784;20.604;2023-01-06T14:13:39;6.70;;;5.43;;
43990;SDS011;29654;50.784;20.604;2023-01-06T14:18:43;6.78;;;6.10;;
43990;SDS011;29654;50.784;20.604;2023-01-06T14:23:58;7.13;;;5.60;;
43990;SDS011;29654;50.784;20.604;2023-01-06T14:34:58;8.30;;;6.68;;
43990;SDS011;29654;50.784;20.604;2023-01-06T14:40:06;10.10;;;7.82;;
43990;SDS011;29654;50.784;20.604;2023-01-06T14:45:20;7.80;;;6.50;;
43990;SDS011;29654;50.784;20.604;2023-01-06T14:50:28;8.80;;;6.47;;
43990;SDS011;29654;50.784;20.604;2023-01-06T14:55:35;9.77;;;7.28;;
43990;SDS011;29654;50.784;20.604;2023-01-06T15:00:46;9.98;;;7.18;;
43990;SDS011;29654;50.784;20.604;2023-01-06T15:05:48;8.82;;;7.10;;
43990;SDS011;29654;50.784;20.604;2023-01-06T15:10:52;8.55;;;7.15;;
43990;SDS011;29654;50.784;20.604;2023-01-06T15:15:56;9.45;;;8.10;;
43990;SDS011;29654;50.784;20.604;2023-01-06T15:21:04;8.75;;;7.60;;
43990;SDS011;29654;50.784;20.604;2023-01-06T15:26:14;8.95;;;6.97;;
43990;SDS011;29654;50.784;20.604;2023-01-06T15:31:18;9.00;;;7.65;;
43990;SDS011;29654;50.784;20.604;2023-01-06T15:36:21;11.57;;;9.77;;
43990;SDS011;29654;50.784;20.604;2023-01-06T15:41:26;18.73;;;13.65;;
43990;SDS011;29654;50.784;20.604;2023-01-06T15:46:36;16.52;;;12.63;;
43990;SDS011;29654;50.784;20.604;2023-01-06T15:51:47;12.70;;;10.70;;
43990;SDS011;29654;50.784;20.604;2023-01-06T15:56:56;17.50;;;12.18;;
43990;SDS011;29654;50.784;20.604;2023-01-06T16:01:59;15.07;;;11.90;;
43990;SDS011;29654;50.784;20.604;2023-01-06T16:12:35;13.38;;;10.95;;
43990;SDS011;29654;50.784;20.604;2023-01-06T16:17:42;13.00;;;11.43;;
43990;SDS011;29654;50.784;20.604;2023-01-06T16:22:47;16.67;;;13.40;;
43990;SDS011;29654;50.784;20.604;2023-01-06T16:27:55;19.27;;;14.77;;
43990;SDS011;29654;50.784;20.604;2023-01-06T16:33:00;15.98;;;13.13;;
43990;SDS011;29654;50.784;20.604;2023-01-06T16:38:04;14.38;;;11.30;;
43990;SDS011;29654;50.784;20.604;2023-01-06T16:43:09;13.60;;;11.15;;
43990;SDS011;29654;50.784;20.604;2023-01-06T16:48:12;14.02;;;10.90;;
43990;SDS011;29654;50.784;20.604;2023-01-06T16:53:17;14.00;;;10.50;;
43990;SDS011;29654;50.784;20.604;2023-01-06T16:58:23;13.60;;;10.95;;
43990;SDS011;29654;50.784;20.604;2023-01-06T17:03:28;12.85;;;10.65;;
43990;SDS011;29654;50.784;20.604;2023-01-06T17:08:33;11.88;;;10.60;;
43990;SDS011;29654;50.784;20.604;2023-01-06T17:13:40;13.77;;;10.43;;
43990;SDS011;29654;50.784;20.604;2023-01-06T17:18:50;12.00;;;9.93;;
43990;SDS011;29654;50.784;20.604;2023-01-06T17:23:56;12.00;;;10.05;;
43990;SDS011;29654;50.784;20.604;2023-01-06T17:29:10;11.50;;;10.25;;
43990;SDS011;29654;50.784;20.604;2023-01-06T17:34:16;10.93;;;9.70;;
43990;SDS011;29654;50.784;20.604;2023-01-06T17:39:23;11.82;;;10.40;;
43990;SDS011;29654;50.784;20.604;2023-01-06T17:44:31;12.60;;;10.23;;
43990;SDS011;29654;50.784;20.604;2023-01-06T17:49:37;13.20;;;9.80;;
43990;SDS011;29654;50.784;20.604;2023-01-06T17:54:41;11.60;;;10.05;;
43990;SDS011;29654;50.784;20.604;2023-01-06T18:00:15;12.02;;;10.45;;
43990;SDS011;29654;50.784;20.604;2023-01-06T18:11:20;13.50;;;11.32;;
43990;SDS011;29654;50.784;20.604;2023-01-06T18:16:31;14.45;;;12.30;;
43990;SDS011;29654;50.784;20.604;2023-01-06T18:21:36;12.98;;;11.15;;
43990;SDS011;29654;50.784;20.604;2023-01-06T18:26:39;13.65;;;11.50;;
43990;SDS011;29654;50.784;20.604;2023-01-06T18:31:50;12.70;;;11.25;;
43990;SDS011;29654;50.784;20.604;2023-01-06T18:36:54;13.18;;;11.55;;
43990;SDS011;29654;50.784;20.604;2023-01-06T18:42:09;14.35;;;11.15;;
43990;SDS011;29654;50.784;20.604;2023-01-06T18:47:21;12.93;;;11.43;;
43990;SDS011;29654;50.784;20.604;2023-01-06T18:57:52;17.05;;;12.55;;
43990;SDS011;29654;50.784;20.604;2023-01-06T19:03:01;15.38;;;12.43;;
43990;SDS011;29654;50.784;20.604;2023-01-06T19:08:32;14.93;;;13.32;;
43990;SDS011;29654;50.784;20.604;2023-01-06T19:13:36;13.77;;;11.73;;
43990;SDS011;29654;50.784;20.604;2023-01-06T19:18:41;14.07;;;12.43;;
43990;SDS011;29654;50.784;20.604;2023-01-06T19:23:43;13.85;;;11.65;;
43990;SDS011;29654;50.784;20.604;2023-01-06T19:28:46;14.18;;;12.07;;
43990;SDS011;29654;50.784;20.604;2023-01-06T19:33:59;13.40;;;11.88;;
43990;SDS011;29654;50.784;20.604;2023-01-06T19:39:18;15.20;;;13.07;;
43990;SDS011;29654;50.784;20.604;2023-01-06T19:44:28;15.43;;;13.18;;
43990;SDS011;29654;50.784;20.604;2023-01-06T19:49:36;18.45;;;13.88;;
43990;SDS011;29654;50.784;20.604;2023-01-06T19:54:41;16.38;;;13.57;;
43990;SDS011;29654;50.784;20.604;2023-01-06T19:59:43;14.70;;;12.40;;
43990;SDS011;29654;50.784;20.604;2023-01-06T20:04:47;15.00;;;13.27;;
43990;SDS011;29654;50.784;20.604;2023-01-06T20:09:50;24.02;;;18.73;;
43990;SDS011;29654;50.784;20.604;2023-01-06T20:14:53;20.70;;;17.33;;
43990;SDS011;29654;50.784;20.604;2023-01-06T20:19:57;27.70;;;23.13;;
43990;SDS011;29654;50.784;20.604;2023-01-06T20:24:59;18.80;;;15.43;;
43990;SDS011;29654;50.784;20.604;2023-01-06T20:30:02;23.42;;;18.98;;
43990;SDS011;29654;50.784;20.604;2023-01-06T20:35:07;22.58;;;18.90;;
43990;SDS011;29654;50.784;20.604;2023-01-06T20:40:11;28.80;;;22.52;;
43990;SDS011;29654;50.784;20.604;2023-01-06T20:45:14;31.52;;;24.50;;
43990;SDS011;29654;50.784;20.604;2023-01-06T20:50:18;33.70;;;26.10;;
43990;SDS011;29654;50.784;20.604;2023-01-06T20:55:21;21.98;;;18.08;;
43990;SDS011;29654;50.784;20.604;2023-01-06T21:00:23;27.60;;;22.80;;
43990;SDS011;29654;50.784;20.604;2023-01-06T21:05:27;24.20;;;20.83;;
43990;SDS011;29654;50.784;20.604;2023-01-06T21:10:30;27.17;;;21.77;;
43990;SDS011;29654;50.784;20.604;2023-01-06T21:15:33;29.05;;;23.45;;
43990;SDS011;29654;50.784;20.604;2023-01-06T21:20:37;38.17;;;29.85;;
43990;SDS011;29654;50.784;20.604;2023-01-06T21:25:39;43.75;;;34.22;;
43990;SDS011;29654;50.784;20.604;2023-01-06T21:30:42;27.63;;;22.88;;
43990;SDS011;29654;50.784;20.604;2023-01-06T21:35:45;20.15;;;16.50;;
43990;SDS011;29654;50.784;20.604;2023-01-06T21:40:48;22.92;;;17.20;;
43990;SDS011;29654;50.784;20.604;2023-01-06T21:45:51;20.13;;;15.30;;
43990;SDS011;29654;50.784;20.604;2023-01-06T21:50:54;16.23;;;14.45;;
43990;SDS011;29654;50.784;20.604;2023-01-06T21:55:58;18.35;;;15.10;;
43990;SDS011;29654;50.784;20.604;2023-01-06T22:01:01;19.15;;;15.15;;
43990;SDS011;29654;50.784;20.604;2023-01-06T22:06:05;19.83;;;16.65;;
43990;SDS011;29654;50.784;20.604;2023-01-06T22:11:08;18.13;;;14.65;;
43990;SDS011;29654;50.784;20.604;2023-01-06T22:16:10;20.35;;;15.70;;
43990;SDS011;29654;50.784;20.604;2023-01-06T22:21:14;16.38;;;13.60;;
43990;SDS011;29654;50.784;20.604;2023-01-06T22:26:17;19.15;;;14.77;;
43990;SDS011;29654;50.784;20.604;2023-01-06T22:31:20;16.70;;;14.70;;
43990;SDS011;29654;50.784;20.604;2023-01-06T22:36:24;16.63;;;13.52;;
43990;SDS011;29654;50.784;20.604;2023-01-06T22:41:26;17.42;;;13.48;;
43990;SDS011;29654;50.784;20.604;2023-01-06T22:46:29;16.02;;;13.02;;
43990;SDS011;29654;50.784;20.604;2023-01-06T22:51:33;15.70;;;13.32;;
43990;SDS011;29654;50.784;20.604;2023-01-06T22:56:36;13.93;;;12.20;;
43990;SDS011;29654;50.784;20.604;2023-01-06T23:01:39;14.30;;;11.52;;
43990;SDS011;29654;50.784;20.604;2023-01-06T23:06:43;12.77;;;10.98;;
43990;SDS011;29654;50.784;20.604;2023-01-06T23:11:45;12.25;;;10.95;;
43990;SDS011;29654;50.784;20.604;2023-01-06T23:16:48;13.25;;;10.60;;
43990;SDS011;29654;50.784;20.604;2023-01-06T23:21:52;12.10;;;9.70;;
43990;SDS011;29654;50.784;20.604;2023-01-06T23:26:55;11.55;;;9.80;;
43990;SDS011;29654;50.784;20.604;2023-01-06T23:31:58;10.32;;;8.45;;
43990;SDS011;29654;50.784;20.604;2023-01-06T23:37:02;8.45;;;7.60;;
43990;SDS011;29654;50.784;20.604;2023-01-06T23:42:04;9.10;;;7.13;;
43990;SDS011;29654;50.784;20.604;2023-01-06T23:47:07;7.53;;;6.82;;
43990;SDS011;29654;50.784;20.604;2023-01-06T23:52:11;6.68;;;6.07;;
43990;SDS011;29654;50.784;20.604;2023-01-06T23:57:14;6.38;;;5.78;;
